Flugplatz Hirzenhain

Für EDFI sind keine METAR/TAF Berichte vorhanden.
Es werden die Flugwettermeldungen vom Flugplatz Siegerland in 23 km Entfernung angezeigt.

Bericht für EDGS

vom 31.05. um 09:50 UTC

Wind 14 kt aus 70°

Sichtweite 10 km oder mehr

gering bewölkt in 4200 ft

Temperatur 13.0°C

Taupunkt 4.0°C

Luftfeuchtigkeit 54%

Luftdruck 1022 hPa

EDGS 310950Z 07014KT 9999 FEW042 13/04 Q1022

Prognose für EDGS

vom 31.05. um 08:00 UTC

Zwischen 09:00 UTC und 18:00 UTC

Wind 13 kt aus 70°

Sichtweite 10 km oder mehr

keine signifikanten Wettererscheinungen

keine Wolken

TAF EDGS 310800Z 3109/3118 07013KT CAVOK
Impressum